Time;durP1;ratioP1;P1;durP2;ratioP2;P2;SDS_P1;SDS_P2;PMS_P1;PMS_P2;Temp;Humidity;BMP_temperature;BMP_pressure;BME280_temperature;BME280_humidity;BME280_pressure;Samples;Min_cycle;Max_cycle;Signal;HPM_P1;HPM_P2
2023/04/11 00:01:48;;;;;;;10.93;8.45;;;11.10;99.90;;;;;;5047320;28;20040;-68
2023/04/11 00:04:16;;;;;;;11.32;8.70;;;11.10;99.90;;;;;;5051945;28;20656;-71
2023/04/11 00:06:44;;;;;;;12.25;9.10;;;11.20;99.90;;;;;;5066395;28;20398;-68
2023/04/11 00:09:25;;;;;;;10.30;8.30;;;11.20;99.90;;;;;;5070247;28;20062;-67
2023/04/11 00:11:53;;;;;;;10.75;8.20;;;11.20;99.90;;;;;;5066561;28;20411;-66
2023/04/11 00:14:20;;;;;;;10.10;8.18;;;11.20;99.90;;;;;;5069594;28;20036;-70
2023/04/11 00:16:48;;;;;;;9.68;8.25;;;11.30;99.90;;;;;;5070363;28;20037;-71
2023/04/11 00:19:16;;;;;;;9.75;7.90;;;11.30;99.90;;;;;;5070046;28;20047;-69
2023/04/11 00:21:44;;;;;;;11.35;8.73;;;11.40;99.90;;;;;;5069677;28;20046;-68
2023/04/11 00:24:11;;;;;;;9.48;8.18;;;11.40;99.90;;;;;;5064841;28;20434;-67
2023/04/11 00:26:38;;;;;;;11.82;8.80;;;11.30;99.90;;;;;;5069808;28;20071;-66
2023/04/11 00:29:05;;;;;;;10.50;8.43;;;11.30;99.90;;;;;;5068391;28;20087;-66
2023/04/11 00:31:33;;;;;;;9.90;8.05;;;11.30;99.90;;;;;;5065764;28;20048;-66
2023/04/11 00:34:01;;;;;;;10.40;8.93;;;11.30;99.90;;;;;;5058820;28;20127;-66
2023/04/11 00:36:30;;;;;;;10.80;8.45;;;11.30;99.90;;;;;;5068541;28;20036;-67
2023/04/11 00:39:00;;;;;;;11.38;8.80;;;11.30;99.90;;;;;;5069856;28;20048;-67
2023/04/11 00:41:27;;;;;;;9.65;8.15;;;11.30;99.90;;;;;;5068887;28;20046;-67
2023/04/11 00:43:56;;;;;;;10.02;8.50;;;11.30;99.90;;;;;;5061562;28;20041;-66
2023/04/11 00:46:24;;;;;;;10.00;8.30;;;11.40;99.90;;;;;;5067541;28;20040;-66
2023/04/11 00:48:55;;;;;;;10.02;8.02;;;11.40;99.90;;;;;;5068487;28;20510;-66
2023/04/11 00:51:23;;;;;;;9.50;7.97;;;11.30;99.90;;;;;;5062793;28;20041;-66
2023/04/11 00:54:00;;;;;;;10.07;8.23;;;11.30;99.90;;;;;;5066237;28;20044;-67
2023/04/11 00:56:27;;;;;;;10.98;8.70;;;11.30;99.90;;;;;;5068434;28;20064;-68
2023/04/11 00:58:55;;;;;;;10.65;8.38;;;11.30;99.90;;;;;;5069973;28;20090;-67
2023/04/11 01:01:23;;;;;;;9.48;7.57;;;11.30;99.90;;;;;;5068891;28;20098;-66
2023/04/11 01:03:52;;;;;;;9.65;7.93;;;11.30;99.90;;;;;;5068128;28;20041;-68
2023/04/11 01:06:22;;;;;;;8.57;7.63;;;11.30;99.90;;;;;;5065556;28;20124;-68
2023/04/11 01:08:49;;;;;;;10.70;8.18;;;11.30;99.90;;;;;;5088018;28;20044;-67
2023/04/11 01:11:19;;;;;;;10.88;8.23;;;11.20;99.90;;;;;;5079469;28;20036;-67
2023/04/11 01:13:46;;;;;;;8.55;7.50;;;11.20;99.90;;;;;;5052057;28;20036;-67
2023/04/11 01:16:14;;;;;;;9.07;7.82;;;11.30;99.90;;;;;;5069780;28;20464;-67
2023/04/11 01:18:41;;;;;;;9.30;7.78;;;11.20;99.90;;;;;;5062394;28;20052;-66
2023/04/11 01:21:09;;;;;;;8.95;7.45;;;11.30;99.90;;;;;;5069757;28;20052;-68
2023/04/11 01:23:36;;;;;;;10.25;8.40;;;11.30;99.90;;;;;;5068710;28;20537;-67
2023/04/11 01:26:03;;;;;;;10.40;7.07;;;11.20;99.90;;;;;;5071044;28;20059;-67
2023/04/11 01:28:30;;;;;;;10.20;7.95;;;11.20;99.90;;;;;;5066004;28;20128;-67
2023/04/11 01:30:59;;;;;;;9.18;7.65;;;11.20;99.90;;;;;;5051791;28;20033;-67
2023/04/11 01:33:26;;;;;;;8.80;7.75;;;11.20;99.90;;;;;;5080337;28;20452;-68
2023/04/11 01:35:54;;;;;;;8.57;7.38;;;11.30;99.90;;;;;;5066801;28;20104;-66
2023/04/11 01:38:21;;;;;;;14.95;7.80;;;11.30;99.90;;;;;;5065899;28;20044;-67
2023/04/11 01:40:50;;;;;;;9.73;7.45;;;11.30;99.90;;;;;;5037354;28;20041;-68
2023/04/11 01:43:18;;;;;;;9.57;7.72;;;11.30;99.90;;;;;;5078998;28;20521;-67
2023/04/11 01:45:45;;;;;;;11.38;7.50;;;11.20;99.90;;;;;;5074004;28;20044;-68
2023/04/11 01:48:14;;;;;;;9.73;8.05;;;11.10;99.90;;;;;;5065541;28;20051;-68
2023/04/11 01:50:42;;;;;;;9.65;7.38;;;11.00;99.90;;;;;;5070445;28;20040;-66
2023/04/11 01:53:10;;;;;;;10.27;7.25;;;11.00;99.90;;;;;;5070400;28;20115;-66
2023/04/11 01:55:37;;;;;;;10.55;7.70;;;11.00;99.90;;;;;;5070872;28;20415;-67
2023/04/11 01:58:04;;;;;;;11.27;7.85;;;10.90;99.90;;;;;;5053688;28;20460;-67
2023/04/11 02:00:32;;;;;;;10.10;8.05;;;10.80;99.90;;;;;;5060611;28;20049;-66
2023/04/11 02:02:59;;;;;;;10.23;7.93;;;10.80;99.90;;;;;;5070722;28;20436;-67
2023/04/11 02:05:27;;;;;;;9.50;7.78;;;10.70;99.90;;;;;;5065531;28;20048;-67
2023/04/11 02:07:55;;;;;;;9.25;7.50;;;10.60;99.90;;;;;;5060213;28;20120;-67
2023/04/11 02:10:22;;;;;;;8.93;7.45;;;10.60;99.90;;;;;;5075708;28;20468;-67
2023/04/11 02:12:49;;;;;;;10.25;7.55;;;10.50;99.90;;;;;;5067685;28;20125;-67
2023/04/11 02:15:17;;;;;;;9.48;7.50;;;10.60;99.90;;;;;;5070178;28;20169;-68
2023/04/11 02:17:44;;;;;;;11.02;7.93;;;10.60;99.90;;;;;;5056728;28;20040;-67
2023/04/11 02:20:13;;;;;;;8.85;7.50;;;10.50;99.90;;;;;;5075526;28;20051;-66
2023/04/11 02:22:40;;;;;;;8.55;7.18;;;10.50;99.90;;;;;;5053488;28;20052;-67
2023/04/11 02:25:08;;;;;;;10.32;7.65;;;10.50;99.90;;;;;;5071953;28;20041;-67
2023/04/11 02:27:35;;;;;;;9.20;7.63;;;10.60;99.90;;;;;;5070680;28;20036;-67
2023/04/11 02:30:06;;;;;;;10.10;7.57;;;10.60;99.90;;;;;;5075948;28;20040;-67
2023/04/11 02:32:34;;;;;;;11.02;8.00;;;10.60;99.90;;;;;;5073207;28;20051;-67
2023/04/11 02:35:03;;;;;;;9.20;7.50;;;10.60;99.90;;;;;;5052882;28;20510;-67
2023/04/11 02:37:31;;;;;;;10.40;7.55;;;10.60;99.90;;;;;;5067869;28;20415;-68
2023/04/11 02:39:58;;;;;;;11.15;7.32;;;10.60;99.90;;;;;;5071753;28;20155;-68
2023/04/11 02:42:25;;;;;;;8.77;7.50;;;10.60;99.90;;;;;;5062387;28;20700;-67
2023/04/11 02:44:54;;;;;;;11.88;8.25;;;10.60;99.90;;;;;;5071382;28;20680;-67
2023/04/11 02:47:26;;;;;;;9.10;7.32;;;10.60;99.90;;;;;;5051822;28;20119;-67
2023/04/11 02:49:56;;;;;;;10.13;7.85;;;10.60;99.90;;;;;;5063589;28;20042;-67
2023/04/11 02:52:29;;;;;;;10.75;8.15;;;10.50;99.90;;;;;;5069355;28;20395;-68
2023/04/11 02:54:56;;;;;;;10.20;7.35;;;10.50;99.90;;;;;;5074637;28;20056;-67
2023/04/11 02:57:23;;;;;;;9.52;7.20;;;10.40;99.90;;;;;;5078983;28;20655;-67
2023/04/11 02:59:52;;;;;;;11.05;7.43;;;10.40;99.90;;;;;;5068365;28;20438;-67
2023/04/11 03:02:28;;;;;;;11.40;8.13;;;10.40;99.90;;;;;;5069244;28;20041;-67
2023/04/11 03:04:57;;;;;;;9.95;7.80;;;10.40;99.90;;;;;;5060625;28;20036;-68
2023/04/11 03:07:25;;;;;;;11.00;7.63;;;10.40;99.90;;;;;;5067977;28;20045;-67
2023/04/11 03:09:53;;;;;;;11.35;8.25;;;10.40;99.90;;;;;;5067913;28;20037;-68
2023/04/11 03:12:20;;;;;;;10.82;6.95;;;10.30;99.90;;;;;;5069382;28;20044;-68
2023/04/11 03:14:54;;;;;;;12.45;8.32;;;10.30;99.90;;;;;;5075925;28;20086;-68
2023/04/11 03:17:22;;;;;;;12.32;7.95;;;10.30;99.90;;;;;;5069150;28;20048;-70
2023/04/11 03:19:49;;;;;;;14.05;8.00;;;10.20;99.90;;;;;;5085369;28;20032;-68
2023/04/11 03:22:16;;;;;;;10.45;7.43;;;10.30;99.90;;;;;;5069602;28;20052;-68
2023/04/11 03:24:43;;;;;;;11.30;8.57;;;10.20;99.90;;;;;;5076943;28;20064;-67
2023/04/11 03:27:11;;;;;;;11.25;8.10;;;10.20;99.90;;;;;;5070846;28;20448;-67
2023/04/11 03:29:43;;;;;;;10.77;8.05;;;10.30;99.90;;;;;;5080317;28;20039;-67
2023/04/11 03:32:19;;;;;;;13.65;8.10;;;10.30;99.90;;;;;;5056038;28;20040;-67
2023/04/11 03:34:47;;;;;;;13.63;8.55;;;10.30;99.90;;;;;;5067589;28;20403;-68
2023/04/11 03:37:14;;;;;;;12.50;8.15;;;10.30;99.90;;;;;;5036358;28;20068;-67
2023/04/11 03:39:42;;;;;;;11.95;8.10;;;10.30;99.90;;;;;;5063548;28;20055;-66
2023/04/11 03:42:11;;;;;;;11.93;7.50;;;10.30;99.90;;;;;;5051639;28;20040;-67
2023/04/11 03:44:40;;;;;;;11.23;7.55;;;10.30;99.90;;;;;;5046027;28;20060;-67
2023/04/11 03:47:08;;;;;;;12.45;7.88;;;10.20;99.90;;;;;;5067285;28;20102;-66
2023/04/11 03:49:40;;;;;;;11.25;7.20;;;10.20;99.90;;;;;;5062939;28;20048;-67
2023/04/11 03:52:08;;;;;;;11.30;7.80;;;10.20;99.90;;;;;;5065250;28;20570;-67
2023/04/11 03:54:37;;;;;;;11.30;7.47;;;10.20;99.90;;;;;;5066318;28;20036;-68
2023/04/11 03:57:10;;;;;;;11.20;7.50;;;10.20;99.90;;;;;;5052135;28;20040;-68
2023/04/11 03:59:38;;;;;;;11.13;6.93;;;10.20;99.90;;;;;;5050487;28;20051;-67
2023/04/11 04:02:11;;;;;;;10.98;6.20;;;10.20;99.90;;;;;;5050519;28;20159;-67
2023/04/11 04:04:45;;;;;;;8.77;6.40;;;10.10;99.90;;;;;;5051945;28;20419;-67
2023/04/11 04:07:27;;;;;;;10.55;7.40;;;10.00;99.90;;;;;;5067837;28;20050;-67
2023/04/11 04:10:05;;;;;;;16.43;7.63;;;9.90;99.90;;;;;;5068668;28;20064;-68
2023/04/11 04:12:33;;;;;;;9.50;6.47;;;9.80;99.90;;;;;;5067360;28;20064;-67
2023/04/11 04:15:10;;;;;;;9.25;6.90;;;9.80;99.90;;;;;;5066798;28;20410;-67
2023/04/11 04:17:38;;;;;;;10.35;6.50;;;9.80;99.90;;;;;;5076505;28;20044;-68
2023/04/11 04:20:10;;;;;;;10.43;7.07;;;9.80;99.90;;;;;;5066712;28;20033;-66
2023/04/11 04:22:39;;;;;;;9.90;6.70;;;9.80;99.90;;;;;;5067184;28;20195;-67
2023/04/11 04:25:11;;;;;;;12.57;6.88;;;9.80;99.90;;;;;;5061150;28;20055;-66
2023/04/11 04:27:43;;;;;;;9.77;6.47;;;9.80;99.90;;;;;;5082389;28;20540;-67
2023/04/11 04:30:14;;;;;;;10.07;7.13;;;9.80;99.90;;;;;;5049252;28;20049;-67
2023/04/11 04:33:01;;;;;;;10.15;6.82;;;9.80;99.90;;;;;;5058348;28;20051;-67
2023/04/11 04:35:30;;;;;;;10.60;6.60;;;9.70;99.90;;;;;;5066603;28;20059;-67
2023/04/11 04:38:04;;;;;;;9.43;6.72;;;9.70;99.90;;;;;;5050276;28;20558;-67
2023/04/11 04:40:43;;;;;;;10.32;6.68;;;9.80;99.90;;;;;;5050893;28;20384;-67
2023/04/11 04:43:17;;;;;;;9.75;6.75;;;9.80;99.90;;;;;;5064475;28;20144;-67
2023/04/11 04:45:50;;;;;;;10.15;5.95;;;9.80;99.90;;;;;;5052369;28;20039;-66
2023/04/11 04:48:24;;;;;;;10.73;5.93;;;9.80;99.90;;;;;;5056691;28;20037;-66
2023/04/11 04:50:52;;;;;;;12.07;6.50;;;9.80;99.90;;;;;;5066998;28;20123;-68
2023/04/11 04:53:20;;;;;;;9.88;6.00;;;9.90;99.90;;;;;;5064791;28;20090;-67
2023/04/11 04:55:55;;;;;;;7.47;5.55;;;9.80;99.90;;;;;;5067145;28;20060;-67
2023/04/11 04:58:23;;;;;;;8.43;5.20;;;9.80;99.90;;;;;;5047881;28;20041;-67
2023/04/11 05:00:54;;;;;;;10.95;6.25;;;9.80;99.90;;;;;;5042439;28;20044;-68
2023/04/11 05:03:27;;;;;;;7.55;5.10;;;9.80;99.90;;;;;;5061918;28;20055;-67
2023/04/11 05:05:58;;;;;;;10.95;5.97;;;9.80;99.90;;;;;;5068065;28;20063;-70
2023/04/11 05:08:26;;;;;;;7.60;4.68;;;9.70;99.90;;;;;;5051346;28;20049;-67
2023/04/11 05:10:56;;;;;;;10.55;5.53;;;9.70;99.90;;;;;;5072437;28;20372;-67
2023/04/11 05:13:23;;;;;;;10.98;5.60;;;9.80;99.90;;;;;;5034853;28;20430;-68
2023/04/11 05:15:53;;;;;;;8.93;5.53;;;9.80;99.90;;;;;;5051747;28;20036;-67
2023/04/11 05:18:24;;;;;;;8.95;5.03;;;9.80;99.90;;;;;;5070956;28;20414;-67
2023/04/11 05:20:51;;;;;;;10.48;4.72;;;9.80;99.90;;;;;;5072533;28;20097;-67
2023/04/11 05:23:22;;;;;;;7.53;4.68;;;9.90;99.90;;;;;;5062487;28;20044;-67
2023/04/11 05:25:51;;;;;;;6.72;4.43;;;9.90;99.90;;;;;;5062918;28;20036;-68
2023/04/11 05:28:19;;;;;;;5.82;3.40;;;9.90;99.90;;;;;;5070126;28;20040;-66
2023/04/11 05:30:47;;;;;;;4.38;2.67;;;9.70;99.90;;;;;;5069717;28;20467;-68
2023/04/11 05:33:15;;;;;;;6.47;2.00;;;9.60;99.90;;;;;;5070674;28;20091;-67
2023/04/11 05:35:43;;;;;;;4.22;1.63;;;9.40;99.90;;;;;;5054126;28;20685;-64
2023/04/11 05:38:10;;;;;;;2.67;1.70;;;9.20;99.90;;;;;;5047802;28;20513;-68
2023/04/11 05:40:39;;;;;;;3.20;1.63;;;9.10;99.90;;;;;;5069211;28;20398;-67
2023/04/11 05:43:07;;;;;;;3.72;1.85;;;9.00;99.90;;;;;;5061601;28;20135;-65
2023/04/11 05:45:34;;;;;;;3.80;1.90;;;8.90;99.90;;;;;;5055459;28;20171;-65
2023/04/11 05:48:06;;;;;;;3.40;2.10;;;8.90;99.90;;;;;;5063964;28;20044;-67
2023/04/11 05:50:35;;;;;;;3.30;1.80;;;8.80;99.90;;;;;;5065456;28;20048;-66
2023/04/11 05:53:02;;;;;;;4.13;2.10;;;8.70;99.90;;;;;;5071189;28;20040;-66
2023/04/11 05:55:30;;;;;;;4.57;1.98;;;8.60;99.90;;;;;;5070233;28;20044;-66
2023/04/11 05:57:57;;;;;;;5.65;2.10;;;8.60;99.90;;;;;;5070729;28;20033;-66
2023/04/11 06:00:27;;;;;;;4.53;2.25;;;8.60;99.90;;;;;;5068148;28;20506;-66
2023/04/11 06:02:54;;;;;;;5.72;2.25;;;8.60;99.90;;;;;;5068775;28;20041;-66
2023/04/11 06:05:22;;;;;;;3.63;1.70;;;8.60;99.90;;;;;;5067210;28;20083;-67
2023/04/11 06:07:50;;;;;;;3.25;1.60;;;8.70;99.90;;;;;;5070372;28;20495;-67
2023/04/11 06:10:17;;;;;;;3.75;1.50;;;8.70;99.90;;;;;;5066922;28;20045;-66
2023/04/11 06:12:45;;;;;;;4.65;1.65;;;8.80;99.90;;;;;;5075594;28;20630;-68
2023/04/11 06:15:12;;;;;;;2.90;1.50;;;8.80;99.90;;;;;;5066835;28;20041;-67
2023/04/11 06:17:40;;;;;;;2.65;1.92;;;8.90;99.90;;;;;;5060748;28;20128;-67
2023/04/11 06:20:09;;;;;;;2.45;1.50;;;8.80;99.90;;;;;;5068037;28;20536;-66
2023/04/11 06:22:38;;;;;;;3.78;1.70;;;8.80;99.90;;;;;;5070234;28;20059;-67
2023/04/11 06:25:07;;;;;;;3.47;1.50;;;8.90;99.90;;;;;;5069097;28;20055;-67
2023/04/11 06:27:35;;;;;;;2.38;1.65;;;9.00;99.90;;;;;;5067027;28;20915;-68
2023/04/11 06:30:03;;;;;;;3.67;1.45;;;8.70;99.90;;;;;;5071210;28;20044;-67
2023/04/11 06:32:30;;;;;;;2.53;1.50;;;8.70;99.90;;;;;;5069598;28;20068;-67
2023/04/11 06:34:57;;;;;;;4.18;1.60;;;8.70;99.90;;;;;;5069138;28;20489;-67
2023/04/11 06:37:25;;;;;;;4.20;1.50;;;8.70;99.90;;;;;;5068855;28;20052;-67
2023/04/11 06:39:52;;;;;;;4.05;1.80;;;8.80;99.90;;;;;;5070015;28;20037;-66
2023/04/11 06:42:20;;;;;;;8.77;2.88;;;8.90;99.90;;;;;;5069279;28;20440;-66
2023/04/11 06:44:50;;;;;;;2.25;1.60;;;9.00;99.90;;;;;;5065848;28;20111;-66
2023/04/11 06:47:18;;;;;;;4.43;2.38;;;8.90;99.90;;;;;;5063104;28;20397;-67
2023/04/11 06:49:45;;;;;;;2.67;1.55;;;8.90;99.90;;;;;;5064410;28;20044;-69
2023/04/11 06:52:12;;;;;;;5.55;1.70;;;8.70;99.90;;;;;;5069092;28;20051;-68
2023/04/11 06:54:40;;;;;;;5.03;1.60;;;8.80;99.90;;;;;;5074572;28;20051;-68
2023/04/11 06:57:09;;;;;;;6.22;1.50;;;8.80;99.90;;;;;;5075818;28;20048;-67
2023/04/11 06:59:36;;;;;;;2.22;1.63;;;8.70;99.90;;;;;;5059248;28;20076;-67
2023/04/11 07:02:03;;;;;;;3.45;1.40;;;8.70;99.90;;;;;;5070670;28;20052;-67
2023/04/11 07:04:31;;;;;;;4.68;1.98;;;8.70;99.90;;;;;;5064653;28;20666;-68
2023/04/11 07:06:59;;;;;;;4.18;1.60;;;8.70;99.90;;;;;;5069124;28;20048;-68
2023/04/11 07:09:26;;;;;;;2.88;1.60;;;8.80;99.90;;;;;;5067924;28;20052;-67
2023/04/11 07:11:53;;;;;;;3.67;1.80;;;8.90;99.90;;;;;;5068567;28;20075;-66
2023/04/11 07:14:21;;;;;;;3.40;1.70;;;9.00;99.90;;;;;;5075861;28;20075;-68
2023/04/11 07:16:48;;;;;;;3.47;1.67;;;9.20;99.90;;;;;;5077268;28;20067;-67
2023/04/11 07:19:15;;;;;;;2.83;1.60;;;9.20;99.90;;;;;;5060035;28;20076;-67
2023/04/11 07:21:43;;;;;;;3.35;1.70;;;9.30;99.90;;;;;;5067560;28;20036;-69
2023/04/11 07:24:12;;;;;;;3.13;1.90;;;9.20;99.90;;;;;;5066537;28;20435;-67
2023/04/11 07:26:41;;;;;;;2.28;1.60;;;9.10;99.90;;;;;;5057829;28;20072;-69
2023/04/11 07:29:08;;;;;;;2.78;1.73;;;9.00;99.90;;;;;;5070254;28;20040;-69
2023/04/11 07:31:39;;;;;;;3.65;1.83;;;9.00;99.90;;;;;;5064654;28;20128;-68
2023/04/11 07:34:07;;;;;;;6.38;1.83;;;9.00;99.90;;;;;;5062781;28;20380;-69
2023/04/11 07:36:34;;;;;;;4.20;1.90;;;8.90;99.90;;;;;;5066940;28;20456;-68
2023/04/11 07:39:03;;;;;;;3.25;1.42;;;8.90;99.90;;;;;;5064150;28;20044;-69
2023/04/11 07:41:30;;;;;;;2.80;1.60;;;8.90;99.90;;;;;;5055615;28;20044;-67
2023/04/11 07:43:57;;;;;;;1.90;1.35;;;9.00;99.90;;;;;;5065268;28;20032;-68
2023/04/11 07:46:25;;;;;;;2.05;1.50;;;9.10;99.90;;;;;;5038190;28;20044;-67
2023/04/11 07:48:52;;;;;;;2.63;1.65;;;9.10;99.90;;;;;;5067678;28;20044;-68
2023/04/11 07:51:19;;;;;;;2.78;1.50;;;9.20;99.90;;;;;;5045155;28;20049;-68
2023/04/11 07:53:46;;;;;;;3.55;1.50;;;9.30;99.90;;;;;;5058069;28;20040;-69
2023/04/11 07:56:14;;;;;;;2.83;1.50;;;9.40;99.90;;;;;;5067873;28;20495;-68
2023/04/11 07:58:42;;;;;;;7.38;2.20;;;9.60;99.90;;;;;;5063465;28;20040;-68
2023/04/11 08:01:23;;;;;;;3.58;1.50;;;9.70;99.90;;;;;;5066720;28;20107;-67
2023/04/11 08:03:53;;;;;;;2.97;1.83;;;9.80;99.90;;;;;;5068858;28;20404;-67
2023/04/11 08:06:21;;;;;;;2.53;1.50;;;9.70;99.90;;;;;;5068666;28;20048;-70
2023/04/11 08:08:50;;;;;;;5.18;1.70;;;9.70;99.90;;;;;;5061370;28;20071;-69
2023/04/11 08:11:17;;;;;;;3.83;1.73;;;9.70;99.90;;;;;;5066442;28;20470;-67
2023/04/11 08:13:44;;;;;;;3.50;1.55;;;9.80;99.90;;;;;;5056821;28;20131;-68
2023/04/11 08:16:14;;;;;;;5.32;1.85;;;9.80;99.90;;;;;;5068393;28;20043;-69
2023/04/11 08:18:41;;;;;;;5.32;1.98;;;9.70;99.90;;;;;;5066851;28;20503;-69
2023/04/11 08:21:10;;;;;;;5.13;2.00;;;9.50;99.90;;;;;;5066458;28;20092;-68
2023/04/11 08:23:38;;;;;;;4.70;1.80;;;9.50;99.90;;;;;;5049709;28;20053;-68
2023/04/11 08:26:07;;;;;;;5.50;2.00;;;9.50;99.90;;;;;;5067063;28;20190;-69
2023/04/11 08:28:35;;;;;;;5.70;2.30;;;9.50;99.90;;;;;;5068006;28;20068;-70
2023/04/11 08:31:04;;;;;;;9.48;2.90;;;9.60;99.90;;;;;;5059152;28;20510;-67
2023/04/11 08:33:32;;;;;;;6.55;2.53;;;9.80;99.90;;;;;;5067631;28;20041;-68
2023/04/11 08:35:59;;;;;;;5.15;2.40;;;9.90;99.90;;;;;;5067747;28;20485;-69
2023/04/11 08:38:26;;;;;;;5.03;2.28;;;9.90;99.90;;;;;;5054412;28;20095;-67
2023/04/11 08:40:54;;;;;;;6.07;2.20;;;10.00;99.90;;;;;;5055372;28;20037;-69
2023/04/11 08:43:22;;;;;;;6.05;2.53;;;10.00;99.90;;;;;;5056342;28;20074;-68
2023/04/11 08:45:49;;;;;;;9.65;2.47;;;9.80;99.90;;;;;;5062400;28;20514;-69
2023/04/11 08:48:20;;;;;;;5.53;2.40;;;9.90;99.90;;;;;;5058323;28;20529;-72
2023/04/11 08:50:47;;;;;;;5.13;2.40;;;9.90;99.90;;;;;;5064275;28;20520;-68
2023/04/11 08:53:17;;;;;;;6.38;2.65;;;9.90;99.90;;;;;;5064007;28;20044;-68
2023/04/11 08:55:45;;;;;;;6.35;2.60;;;10.00;99.90;;;;;;5070308;28;20457;-66
2023/04/11 08:58:13;;;;;;;5.53;2.72;;;10.00;99.90;;;;;;5075630;28;20060;-68
2023/04/11 09:00:41;;;;;;;6.10;2.50;;;10.10;99.90;;;;;;5065829;28;20098;-68
2023/04/11 09:03:10;;;;;;;6.72;2.72;;;10.40;99.90;;;;;;5069072;28;20131;-69
2023/04/11 09:05:40;;;;;;;6.38;2.58;;;10.80;99.90;;;;;;5049221;28;20074;-66
2023/04/11 09:08:09;;;;;;;6.85;2.92;;;11.00;99.90;;;;;;5069844;28;20069;-67
2023/04/11 09:10:38;;;;;;;4.68;2.60;;;11.20;99.90;;;;;;5059495;28;20514;-68
2023/04/11 09:13:23;;;;;;;8.23;3.08;;;11.50;99.90;;;;;;5067782;28;20040;-67
2023/04/11 09:16:13;;;;;;;7.20;2.95;;;11.60;99.90;;;;;;5056019;28;20411;-67
2023/04/11 09:18:48;;;;;;;9.95;3.38;;;11.50;99.90;;;;;;5067121;28;20052;-66
2023/04/11 09:21:17;;;;;;;7.68;3.47;;;11.50;99.90;;;;;;5067914;28;20052;-66
2023/04/11 09:23:45;;;;;;;6.40;2.80;;;11.30;99.90;;;;;;5062144;28;20068;-69
2023/04/11 09:26:28;;;;;;;4.65;2.70;;;11.00;99.90;;;;;;5064486;28;20074;-68
2023/04/11 09:28:55;;;;;;;5.88;2.65;;;10.70;99.90;;;;;;5045958;28;20036;-68
2023/04/11 09:31:39;;;;;;;5.90;2.60;;;10.50;99.90;;;;;;5060244;28;20036;-67
2023/04/11 09:34:12;;;;;;;10.07;2.70;;;10.40;99.90;;;;;;5063204;28;20048;-68
2023/04/11 09:36:41;;;;;;;6.80;2.80;;;10.60;99.90;;;;;;5051099;28;20068;-68
2023/04/11 09:39:16;;;;;;;4.72;2.40;;;10.80;99.90;;;;;;5065930;28;20583;-68
2023/04/11 09:41:44;;;;;;;4.65;2.50;;;11.20;99.90;;;;;;5070461;28;20052;-67
2023/04/11 09:44:12;;;;;;;4.30;2.60;;;11.50;99.90;;;;;;5047511;28;20064;-66
2023/04/11 09:46:58;;;;;;;7.68;2.75;;;11.80;99.90;;;;;;5066579;28;20056;-68
2023/04/11 09:49:27;;;;;;;6.13;2.78;;;11.90;99.90;;;;;;5066598;28;20487;-68
2023/04/11 09:51:56;;;;;;;5.97;2.63;;;11.70;99.90;;;;;;5064471;28;20036;-68
2023/04/11 09:54:25;;;;;;;7.80;2.75;;;11.40;99.90;;;;;;5067126;28;20444;-69
2023/04/11 09:56:52;;;;;;;7.88;2.80;;;11.50;99.90;;;;;;5049083;28;20039;-67
2023/04/11 09:59:20;;;;;;;6.05;2.65;;;11.60;99.90;;;;;;5057760;28;20444;-68
2023/04/11 10:01:50;;;;;;;5.65;2.65;;;11.70;99.90;;;;;;5077256;28;20470;-69
2023/04/11 10:04:19;;;;;;;5.13;2.58;;;12.00;99.90;;;;;;5078132;28;20106;-69
2023/04/11 10:07:15;;;;;;;4.90;2.60;;;12.10;99.90;;;;;;5060701;28;20044;-68
2023/04/11 10:09:44;;;;;;;4.57;2.33;;;12.10;99.90;;;;;;5065319;28;20535;-69
2023/04/11 10:12:12;;;;;;;4.30;2.40;;;12.10;99.90;;;;;;5067340;28;20102;-69
2023/04/11 10:14:40;;;;;;;7.97;2.63;;;12.00;99.90;;;;;;5078326;28;20043;-68
2023/04/11 10:17:15;;;;;;;5.25;2.70;;;12.00;99.90;;;;;;5068625;28;20418;-70
2023/04/11 10:19:50;;;;;;;5.35;2.75;;;11.90;99.90;;;;;;5059140;28;20048;-66
2023/04/11 10:22:40;;;;;;;4.75;2.63;;;11.70;99.90;;;;;;5068059;28;20032;-68
2023/04/11 10:25:18;;;;;;;4.75;2.65;;;11.80;99.90;;;;;;5065256;28;20098;-67
2023/04/11 10:27:59;;;;;;;5.93;2.90;;;12.00;99.90;;;;;;5070737;28;20036;-68
2023/04/11 10:30:39;;;;;;;4.60;2.70;;;12.30;99.90;;;;;;5058551;28;20045;-67
2023/04/11 10:33:14;;;;;;;6.18;3.10;;;12.60;99.90;;;;;;5068317;28;20041;-67
2023/04/11 10:36:11;;;;;;;6.18;2.83;;;12.80;99.90;;;;;;5063176;28;20041;-67
2023/04/11 10:38:47;;;;;;;4.60;2.80;;;12.60;99.90;;;;;;5067341;28;20037;-67
2023/04/11 10:41:35;;;;;;;7.35;3.13;;;12.60;99.90;;;;;;5066594;28;20049;-67
2023/04/11 10:44:23;;;;;;;4.95;3.00;;;12.80;99.90;;;;;;5063872;28;20072;-64
2023/04/11 10:46:52;;;;;;;8.73;3.40;;;12.90;99.90;;;;;;5065447;28;20066;-66
2023/04/11 10:49:39;;;;;;;5.68;3.60;;;13.00;99.90;;;;;;5059777;28;20057;-65
2023/04/11 10:52:21;;;;;;;6.20;3.17;;;13.30;99.90;;;;;;5060899;28;20429;-66
2023/04/11 10:54:52;;;;;;;;;;;13.40;99.90;;;;;;5059245;28;20053;-66
2023/04/11 10:57:20;;;;;;;7.25;3.58;;;13.40;99.90;;;;;;5066755;28;19921;-68
2023/04/11 10:59:50;;;;;;;7.20;3.75;;;13.30;99.90;;;;;;5061884;28;20071;-66
2023/04/11 11:02:18;;;;;;;6.55;3.83;;;13.40;99.90;;;;;;5070943;28;20056;-66
2023/04/11 11:04:47;;;;;;;6.63;3.83;;;13.00;99.90;;;;;;5059810;28;20051;-67
2023/04/11 11:07:16;;;;;;;8.07;3.80;;;12.70;99.90;;;;;;5067974;28;20151;-66
2023/04/11 11:09:49;;;;;;;5.65;3.95;;;12.60;99.90;;;;;;5068512;28;20507;-71
2023/04/11 11:12:17;;;;;;;8.07;3.60;;;12.40;99.90;;;;;;5079102;28;20469;-65
2023/04/11 11:14:46;;;;;;;7.13;3.55;;;12.50;99.90;;;;;;5064185;28;20494;-66
2023/04/11 11:17:15;;;;;;;5.97;3.35;;;12.40;99.90;;;;;;5069235;28;20064;-69
2023/04/11 11:19:46;;;;;;;7.15;3.67;;;12.90;99.90;;;;;;5067473;28;20055;-67
2023/04/11 11:22:16;;;;;;;5.95;3.50;;;13.20;99.90;;;;;;5050687;28;20075;-68
2023/04/11 11:24:43;;;;;;;4.60;3.40;;;13.60;99.90;;;;;;5062990;28;20055;-67
2023/04/11 11:27:21;;;;;;;13.48;4.00;;;14.00;99.90;;;;;;5048988;28;20032;-65
2023/04/11 11:29:49;;;;;;;5.55;3.90;;;14.30;99.90;;;;;;5054445;28;20040;-65
2023/04/11 11:32:26;;;;;;;7.78;3.65;;;14.30;99.90;;;;;;5067199;28;20043;-67
2023/04/11 11:34:56;;;;;;;5.68;4.00;;;14.10;99.90;;;;;;5054020;28;20538;-66
2023/04/11 11:37:24;;;;;;;7.82;4.15;;;14.50;99.90;;;;;;5077562;28;20108;-64
2023/04/11 11:39:51;;;;;;;5.90;4.00;;;14.30;99.90;;;;;;5065007;28;20126;-66
2023/04/11 11:42:19;;;;;;;6.32;4.32;;;14.60;99.90;;;;;;5050901;28;20440;-67
2023/04/11 11:44:46;;;;;;;7.25;4.00;;;14.50;99.90;;;;;;5052608;28;20415;-67
2023/04/11 11:47:13;;;;;;;6.45;3.97;;;14.90;99.90;;;;;;5077744;28;20079;-65
2023/04/11 11:49:49;;;;;;;5.22;4.13;;;15.30;99.90;;;;;;5072471;28;20591;-65
2023/04/11 11:52:38;;;;;;;5.38;3.67;;;15.40;99.90;;;;;;5089284;28;20082;-64
2023/04/11 11:55:18;;;;;;;4.40;3.63;;;14.90;99.90;;;;;;5052823;28;20041;-67
2023/04/11 11:57:47;;;;;;;3.85;3.45;;;15.00;99.90;;;;;;5082329;28;20193;-65
2023/04/11 12:00:23;;;;;;;5.93;3.90;;;14.80;99.90;;;;;;5063498;28;20079;-65
2023/04/11 12:02:51;;;;;;;7.90;3.90;;;14.50;99.90;;;;;;5060540;28;20131;-65
2023/04/11 12:05:19;;;;;;;7.22;3.78;;;14.40;99.90;;;;;;5062616;28;20036;-65
2023/04/11 12:07:53;;;;;;;9.82;4.15;;;13.80;99.90;;;;;;5059305;28;20150;-67
2023/04/11 12:10:20;;;;;;;7.57;3.92;;;13.40;99.90;;;;;;5066286;28;20044;-67
2023/04/11 12:12:48;;;;;;;6.57;4.30;;;13.40;99.90;;;;;;5066472;28;20044;-65
2023/04/11 12:15:23;;;;;;;7.25;3.80;;;13.70;99.90;;;;;;5066042;28;20072;-66
2023/04/11 12:17:51;;;;;;;7.10;3.80;;;14.00;99.90;;;;;;5065074;28;20487;-66
2023/04/11 12:20:26;;;;;;;4.95;3.50;;;14.40;99.90;;;;;;5077015;28;20045;-65
2023/04/11 12:22:53;;;;;;;4.32;3.40;;;15.00;99.90;;;;;;5071615;28;20127;-65
2023/04/11 12:25:21;;;;;;;5.75;3.72;;;15.60;99.90;;;;;;5076153;28;20055;-66
2023/04/11 12:27:49;;;;;;;6.13;3.50;;;15.00;99.90;;;;;;5065931;28;20114;-65
2023/04/11 12:30:17;;;;;;;6.47;3.70;;;14.10;99.90;;;;;;5067855;28;20510;-67
2023/04/11 12:32:44;;;;;;;5.38;3.75;;;13.40;99.90;;;;;;5086632;28;20157;-66
2023/04/11 12:35:12;;;;;;;8.02;3.92;;;13.50;99.90;;;;;;5079590;28;20045;-65
2023/04/11 12:37:40;;;;;;;3.75;3.28;;;14.10;99.90;;;;;;5075604;28;20070;-65
2023/04/11 12:40:11;;;;;;;7.13;3.70;;;15.20;99.90;;;;;;5064523;28;20045;-65
2023/04/11 12:42:39;;;;;;;7.40;3.95;;;15.80;99.90;;;;;;5065261;28;20024;-66
2023/04/11 12:45:23;;;;;;;7.07;4.00;;;16.70;99.90;;;;;;5064843;28;20471;-67
2023/04/11 12:47:50;;;;;;;4.50;3.97;;;17.30;99.90;;;;;;5067102;28;20325;-65
2023/04/11 12:50:18;;;;;;;5.25;4.00;;;15.80;99.90;;;;;;5070402;28;20052;-67
2023/04/11 12:52:47;;;;;;;5.07;4.00;;;15.20;99.90;;;;;;5059726;28;20042;-68
2023/04/11 12:55:14;;;;;;;6.63;4.15;;;15.30;99.90;;;;;;5066666;28;20709;-67
2023/04/11 12:57:42;;;;;;;4.65;4.13;;;14.70;99.90;;;;;;5066577;28;20086;-66
2023/04/11 13:00:11;;;;;;;5.28;4.13;;;14.30;99.90;;;;;;5067101;28;20041;-67
2023/04/11 13:02:39;;;;;;;7.43;4.40;;;14.10;99.90;;;;;;5057448;28;20454;-67